Groton, Vermont
Current Conditions -  °F | °C
As of 12:51 AM on Thursday 23 Oct 2014 (Local Time) from KMPV Reporting Station
Overcast Overcast  
Wind Chill: 41°   Ceiling: 1800
Heat Index: 46°   Visibility: 10mi
Dew Point: 40°   Wind: 12mph
Humidity: 79%   Direction: 10°N
Pressure: 30.05"   Gusts: 20mph
Location:  44.21°N, 72.2°W
Report Text: KMPV 230451Z AUTO 01010G17KT 350V050 10SM OVC018 08/04 A3005 RMK AO2 SLP181 T00780044 401110067 $
Loading
Personal Weather Stations






























Interactive Weather Map
Tropical Storm Tracking
New forecast layout! Learn more

10-Day Weather Forecast

Advertisements
Track Severe Weather on mobile